Time;durP1;ratioP1;P1;durP2;ratioP2;P2;SDS_P1;SDS_P2;PMS_P1;PMS_P2;Temp;Humidity;BMP_temperature;BMP_pressure;BME280_temperature;BME280_humidity;BME280_pressure;Samples;Min_cycle;Max_cycle;Signal;HPM_P1;HPM_P2
2021/06/05 00:00:21;;;;;;;66.93;47.03;;;18.80;93.60;;;;;;5135988;27;20089;-36
2021/06/05 00:02:46;;;;;;;69.05;48.53;;;18.80;93.60;;;;;;5135392;27;20030;-37
2021/06/05 00:05:13;;;;;;;67.53;45.08;;;19.00;92.70;;;;;;5135758;27;20035;-37
2021/06/05 00:07:39;;;;;;;72.47;47.75;;;18.90;93.00;;;;;;5135436;27;20496;-36
2021/06/05 00:10:07;;;;;;;71.18;47.35;;;19.00;92.60;;;;;;5135481;27;20031;-36
2021/06/05 00:12:34;;;;;;;70.75;46.75;;;19.00;92.60;;;;;;5135543;27;20525;-36
2021/06/05 00:14:59;;;;;;;71.63;49.80;;;19.20;92.10;;;;;;5135836;27;20031;-37
2021/06/05 00:17:25;;;;;;;72.30;48.13;;;19.20;91.70;;;;;;5135468;27;20408;-37
2021/06/05 00:19:51;;;;;;;61.72;44.30;;;19.10;91.80;;;;;;5135460;27;20098;-37
2021/06/05 00:22:17;;;;;;;67.07;44.63;;;19.00;92.60;;;;;;5134057;27;20117;-37
2021/06/05 00:24:43;;;;;;;66.75;45.53;;;19.00;92.80;;;;;;5135233;27;20135;-37
2021/06/05 00:27:09;;;;;;;56.97;44.83;;;19.10;92.10;;;;;;5135894;27;20023;-37
2021/06/05 00:29:35;;;;;;;64.18;46.45;;;19.00;92.00;;;;;;5135530;27;20050;-37
2021/06/05 00:32:01;;;;;;;57.55;43.67;;;19.00;92.40;;;;;;5135258;27;20023;-36
2021/06/05 00:34:27;;;;;;;56.30;41.75;;;19.00;92.40;;;;;;5135223;27;20042;-37
2021/06/05 00:36:52;;;;;;;58.47;42.30;;;19.00;91.90;;;;;;5135412;27;20053;-37
2021/06/05 00:39:18;;;;;;;64.18;45.15;;;19.10;91.60;;;;;;5135085;27;20054;-36
2021/06/05 00:41:44;;;;;;;58.28;42.60;;;19.30;91.00;;;;;;5135255;27;20091;-36
2021/06/05 00:44:12;;;;;;;59.25;42.08;;;18.90;92.40;;;;;;5135149;27;20023;-38
2021/06/05 00:46:38;;;;;;;64.75;44.20;;;18.70;93.00;;;;;;5135321;27;20038;-36
2021/06/05 00:49:06;;;;;;;68.20;46.13;;;18.80;92.90;;;;;;5134929;27;20030;-36
2021/06/05 00:51:42;;;;;;;71.45;44.95;;;18.70;93.10;;;;;;5134926;27;20019;-36
2021/06/05 00:54:09;;;;;;;72.05;50.08;;;18.80;92.90;;;;;;5135274;27;20031;-37
2021/06/05 00:56:35;;;;;;;64.30;40.92;;;19.00;92.40;;;;;;5135129;27;20032;-36
2021/06/05 00:59:02;;;;;;;51.67;38.38;;;18.90;91.50;;;;;;5134517;27;20055;-36
2021/06/05 01:01:30;;;;;;;50.53;38.13;;;18.90;91.90;;;;;;5134768;27;20023;-37
2021/06/05 01:03:56;;;;;;;42.08;35.22;;;18.90;91.40;;;;;;5134326;27;20027;-36
2021/06/05 01:06:32;;;;;;;53.35;37.42;;;18.90;91.40;;;;;;5134402;27;20094;-36
2021/06/05 01:09:07;;;;;;;39.92;32.67;;;18.90;91.10;;;;;;5134458;27;20119;-37
2021/06/05 01:11:51;;;;;;;43.22;32.55;;;18.80;91.00;;;;;;5134364;27;20019;-37
2021/06/05 01:14:32;;;;;;;42.67;33.55;;;18.80;91.20;;;;;;5134332;27;20023;-37
2021/06/05 01:17:06;;;;;;;46.95;35.45;;;18.80;91.40;;;;;;5134537;27;20035;-37
2021/06/05 01:20:06;;;;;;;50.45;35.13;;;18.80;91.60;;;;;;5134430;27;20106;-39
2021/06/05 01:22:57;;;;;;;46.70;32.50;;;18.70;91.80;;;;;;5134493;27;20080;-36
2021/06/05 01:25:54;;;;;;;45.15;36.38;;;18.60;92.40;;;;;;5133976;27;20046;-36
2021/06/05 01:28:30;;;;;;;40.97;32.10;;;18.60;92.10;;;;;;5134782;28;20030;-36
2021/06/05 01:30:58;;;;;;;41.38;31.00;;;18.80;91.60;;;;;;5132991;28;20015;-36
2021/06/05 01:33:27;;;;;;;44.42;34.30;;;18.80;90.40;;;;;;5134300;28;20030;-36
2021/06/05 01:35:54;;;;;;;46.65;34.75;;;18.60;92.00;;;;;;5134274;27;20061;-37
2021/06/05 01:38:21;;;;;;;43.45;34.65;;;18.50;92.70;;;;;;5134490;27;20406;-36
2021/06/05 01:40:49;;;;;;;52.60;37.28;;;18.30;93.00;;;;;;5134127;27;20019;-36
2021/06/05 01:43:18;;;;;;;54.88;37.42;;;18.40;93.30;;;;;;5134284;27;20098;-36
2021/06/05 01:45:45;;;;;;;58.60;42.38;;;18.60;92.80;;;;;;5134126;27;20042;-37
2021/06/05 01:48:12;;;;;;;57.83;42.75;;;18.60;92.20;;;;;;5134392;27;20028;-36
2021/06/05 01:50:41;;;;;;;67.57;43.85;;;18.30;92.70;;;;;;5134133;27;20020;-36
2021/06/05 01:53:19;;;;;;;55.33;40.33;;;18.30;93.50;;;;;;5134341;28;20049;-36
2021/06/05 01:55:51;;;;;;;55.95;39.10;;;18.30;93.30;;;;;;5134476;27;20106;-36
2021/06/05 01:58:19;;;;;;;55.95;42.33;;;18.20;93.40;;;;;;5133146;28;20045;-36
2021/06/05 02:00:48;;;;;;;63.83;42.30;;;18.20;93.90;;;;;;5134379;27;20027;-36
2021/06/05 02:03:15;;;;;;;63.58;42.03;;;18.20;93.80;;;;;;5134422;27;20470;-36
2021/06/05 02:05:42;;;;;;;62.22;41.85;;;18.30;93.40;;;;;;5134185;27;20030;-36
2021/06/05 02:08:11;;;;;;;54.20;40.00;;;18.30;93.40;;;;;;5133966;27;20527;-37
2021/06/05 02:10:37;;;;;;;59.53;41.33;;;18.30;93.40;;;;;;5134232;27;20080;-36
2021/06/05 02:13:05;;;;;;;61.63;43.15;;;18.30;93.50;;;;;;5132640;28;20452;-36
2021/06/05 02:15:37;;;;;;;75.43;50.30;;;18.50;93.50;;;;;;5133872;27;20026;-36
2021/06/05 02:18:08;;;;;;;71.65;47.25;;;18.70;92.60;;;;;;5133896;27;20042;-36
2021/06/05 02:20:38;;;;;;;63.33;43.08;;;18.80;92.20;;;;;;5132954;28;20027;-36
2021/06/05 02:23:07;;;;;;;76.18;47.33;;;18.60;92.30;;;;;;5132599;28;20034;-36
2021/06/05 02:25:33;;;;;;;76.03;48.83;;;18.60;92.80;;;;;;5132302;28;20047;-36
2021/06/05 02:28:03;;;;;;;81.15;48.80;;;18.60;92.90;;;;;;5132474;28;20019;-36
2021/06/05 02:30:29;;;;;;;81.00;50.35;;;18.70;92.50;;;;;;5134109;27;20479;-36
2021/06/05 02:32:57;;;;;;;84.15;51.95;;;18.70;92.40;;;;;;5136945;27;20462;-36
2021/06/05 02:35:36;;;;;;;78.57;49.55;;;18.70;92.20;;;;;;5137493;27;20030;-36
2021/06/05 02:38:03;;;;;;;80.00;47.72;;;18.70;93.20;;;;;;5137510;27;20430;-36
2021/06/05 02:40:34;;;;;;;83.20;50.05;;;18.80;92.40;;;;;;5137277;27;20022;-37
2021/06/05 02:43:05;;;;;;;81.70;49.65;;;18.90;91.90;;;;;;5137599;27;20481;-37
2021/06/05 02:45:54;;;;;;;82.63;50.00;;;18.80;92.10;;;;;;5137267;27;20095;-36
2021/06/05 02:48:20;;;;;;;89.40;52.85;;;18.80;92.40;;;;;;5137436;27;20557;-36
2021/06/05 02:50:50;;;;;;;93.10;53.10;;;18.80;92.60;;;;;;5135898;27;20033;-37
2021/06/05 02:53:16;;;;;;;94.80;56.45;;;18.90;92.00;;;;;;5137530;27;20062;-40
2021/06/05 02:55:43;;;;;;;101.22;55.10;;;18.90;91.70;;;;;;5136989;27;20073;-36
2021/06/05 02:58:10;;;;;;;98.65;57.88;;;18.80;92.00;;;;;;5137071;27;20035;-36
2021/06/05 03:00:41;;;;;;;104.95;57.83;;;18.80;92.50;;;;;;5137284;27;20031;-36
2021/06/05 03:03:09;;;;;;;124.18;61.92;;;18.70;92.50;;;;;;5136974;27;20015;-36
2021/06/05 03:05:36;;;;;;;108.53;61.10;;;18.70;92.70;;;;;;5136760;27;20019;-36
2021/06/05 03:08:04;;;;;;;102.35;57.67;;;18.80;92.50;;;;;;5136989;27;20098;-36
2021/06/05 03:10:31;;;;;;;102.55;57.80;;;18.70;92.50;;;;;;5137866;27;20056;-36
2021/06/05 03:12:58;;;;;;;104.15;57.63;;;18.70;92.90;;;;;;5136738;27;20423;-36
2021/06/05 03:15:27;;;;;;;94.20;55.20;;;18.80;92.60;;;;;;5136648;27;20067;-36
2021/06/05 03:17:52;;;;;;;102.22;56.47;;;18.60;92.90;;;;;;5136874;27;20087;-36
2021/06/05 03:20:22;;;;;;;106.30;57.17;;;18.50;93.20;;;;;;5135289;27;20023;-36
2021/06/05 03:22:48;;;;;;;99.90;55.03;;;18.70;93.10;;;;;;5136552;27;20087;-36
2021/06/05 03:25:15;;;;;;;91.63;50.75;;;18.60;92.50;;;;;;5136374;27;20289;-36
2021/06/05 03:27:42;;;;;;;85.60;51.35;;;18.50;93.20;;;;;;5135180;27;20023;-36
2021/06/05 03:30:09;;;;;;;86.60;51.88;;;18.40;93.30;;;;;;5136414;27;20102;-36
2021/06/05 03:32:35;;;;;;;83.22;47.80;;;18.40;93.70;;;;;;5136399;27;20077;-36
2021/06/05 03:35:01;;;;;;;75.88;48.00;;;18.30;93.70;;;;;;5136593;27;20359;-36
2021/06/05 03:37:27;;;;;;;79.00;48.47;;;18.40;93.90;;;;;;5136364;27;20098;-36
2021/06/05 03:39:53;;;;;;;87.97;51.95;;;18.50;93.60;;;;;;5136280;27;20490;-37
2021/06/05 03:42:19;;;;;;;88.05;50.05;;;18.80;93.30;;;;;;5136170;27;20029;-36
2021/06/05 03:44:44;;;;;;;80.60;49.05;;;18.80;92.50;;;;;;5136050;27;20031;-36
2021/06/05 03:47:10;;;;;;;83.90;50.88;;;18.80;93.00;;;;;;5135984;27;20031;-37
2021/06/05 03:49:36;;;;;;;89.68;52.08;;;18.90;92.40;;;;;;5135931;27;20023;-36
2021/06/05 03:52:01;;;;;;;91.88;51.00;;;18.90;91.80;;;;;;5135941;27;20019;-36
2021/06/05 03:54:27;;;;;;;96.65;54.58;;;18.80;92.00;;;;;;5135946;27;20065;-36
2021/06/05 03:56:53;;;;;;;91.97;52.03;;;19.00;91.60;;;;;;5136045;27;20042;-36
2021/06/05 03:59:19;;;;;;;83.95;49.13;;;19.00;91.20;;;;;;5136054;27;20019;-36
2021/06/05 04:01:45;;;;;;;78.07;48.20;;;18.80;91.60;;;;;;5136064;27;20100;-36
2021/06/05 04:04:11;;;;;;;80.40;46.67;;;18.80;92.60;;;;;;5136232;27;20031;-36
2021/06/05 04:06:37;;;;;;;76.97;47.38;;;18.80;92.10;;;;;;5136331;27;20465;-36
2021/06/05 04:09:05;;;;;;;80.95;49.20;;;18.90;92.30;;;;;;5135960;27;20098;-37
2021/06/05 04:11:33;;;;;;;81.60;49.28;;;19.00;91.70;;;;;;5135734;27;20015;-36
2021/06/05 04:14:01;;;;;;;83.47;48.80;;;19.00;91.10;;;;;;5135607;27;20034;-36
2021/06/05 04:16:27;;;;;;;84.80;48.33;;;19.00;91.20;;;;;;5135845;27;20423;-36
2021/06/05 04:18:53;;;;;;;83.13;46.13;;;18.80;92.00;;;;;;5135851;27;20404;-36
2021/06/05 04:21:22;;;;;;;70.45;45.03;;;18.80;91.70;;;;;;5135433;27;20101;-37
2021/06/05 04:23:47;;;;;;;79.88;47.33;;;18.80;91.60;;;;;;5135393;27;20055;-36
2021/06/05 04:26:14;;;;;;;73.07;45.17;;;18.80;91.90;;;;;;5135383;27;20402;-38
2021/06/05 04:28:40;;;;;;;70.10;44.42;;;18.90;92.00;;;;;;5135675;27;20160;-36
2021/06/05 04:31:07;;;;;;;70.90;44.22;;;18.70;92.30;;;;;;5135627;27;20504;-36
2021/06/05 04:33:33;;;;;;;71.20;44.40;;;18.80;92.30;;;;;;5135282;27;20015;-37
2021/06/05 04:36:05;;;;;;;73.40;42.97;;;18.80;92.20;;;;;;5135191;27;20027;-36
2021/06/05 04:38:31;;;;;;;64.43;41.38;;;18.80;91.80;;;;;;5133945;27;20545;-36
2021/06/05 04:40:57;;;;;;;61.03;41.80;;;18.80;91.80;;;;;;5135145;27;20075;-37
2021/06/05 04:43:23;;;;;;;67.07;41.13;;;18.80;92.20;;;;;;5135153;27;20027;-37
2021/06/05 04:45:49;;;;;;;61.88;40.65;;;18.80;91.80;;;;;;5134967;27;20026;-37
2021/06/05 04:48:15;;;;;;;63.30;40.58;;;18.90;91.80;;;;;;5136151;27;20103;-36
2021/06/05 04:50:42;;;;;;;61.42;39.65;;;18.90;91.30;;;;;;5135270;27;20382;-36
2021/06/05 04:53:08;;;;;;;59.75;39.05;;;18.80;92.00;;;;;;5134894;27;20026;-36
2021/06/05 04:55:35;;;;;;;57.33;38.35;;;18.90;91.40;;;;;;5134508;27;20023;-36
2021/06/05 04:58:02;;;;;;;57.05;38.40;;;19.10;91.10;;;;;;5134887;27;20031;-37
2021/06/05 05:00:39;;;;;;;56.75;36.95;;;19.20;90.60;;;;;;5135628;27;20079;-36
2021/06/05 05:03:07;;;;;;;52.60;33.90;;;19.20;90.70;;;;;;5135020;27;20023;-37
2021/06/05 05:05:33;;;;;;;53.55;35.38;;;19.00;90.60;;;;;;5134833;27;20114;-37
2021/06/05 05:07:59;;;;;;;57.40;36.95;;;19.00;90.80;;;;;;5134652;27;20123;-36
2021/06/05 05:10:29;;;;;;;53.78;35.30;;;19.00;90.40;;;;;;5134915;27;20031;-36
2021/06/05 05:12:55;;;;;;;47.80;33.55;;;18.90;90.80;;;;;;5134629;27;20023;-36
2021/06/05 05:15:21;;;;;;;55.42;35.38;;;18.90;90.40;;;;;;5134491;27;20023;-37
2021/06/05 05:17:47;;;;;;;48.72;33.83;;;18.90;90.30;;;;;;5134563;27;20055;-36
2021/06/05 05:20:16;;;;;;;48.10;31.63;;;18.80;90.20;;;;;;5134744;27;20100;-36
2021/06/05 05:22:42;;;;;;;48.08;31.80;;;18.60;91.00;;;;;;5134400;27;20035;-36
2021/06/05 05:25:10;;;;;;;41.95;31.33;;;18.70;90.90;;;;;;5134319;27;20039;-36
2021/06/05 05:27:36;;;;;;;58.95;35.05;;;18.80;90.60;;;;;;5134453;27;20023;-36
2021/06/05 05:30:03;;;;;;;50.88;34.95;;;18.80;90.30;;;;;;5134449;27;20068;-35
2021/06/05 05:32:29;;;;;;;47.88;32.50;;;18.80;90.30;;;;;;5134313;27;20076;-36
2021/06/05 05:34:54;;;;;;;50.58;33.72;;;18.80;90.70;;;;;;5133124;28;20023;-36
2021/06/05 05:37:20;;;;;;;52.95;34.40;;;18.90;90.30;;;;;;5134324;28;20076;-36
2021/06/05 05:39:45;;;;;;;53.95;36.25;;;19.00;89.80;;;;;;5134563;28;20431;-36
2021/06/05 05:42:11;;;;;;;51.95;36.63;;;18.70;90.60;;;;;;5134266;28;20031;-36
2021/06/05 05:44:36;;;;;;;54.55;36.22;;;18.70;91.00;;;;;;5135093;28;20423;-36
2021/06/05 05:47:02;;;;;;;59.50;37.58;;;18.80;91.00;;;;;;5134466;28;20098;-36
2021/06/05 05:49:28;;;;;;;51.47;37.22;;;18.90;89.90;;;;;;5134436;27;20023;-36
2021/06/05 05:51:54;;;;;;;49.97;35.20;;;18.80;90.10;;;;;;5134131;27;20023;-36
2021/06/05 05:54:20;;;;;;;54.03;36.22;;;18.90;90.30;;;;;;5134403;28;20027;-36
2021/06/05 05:56:45;;;;;;;58.10;39.03;;;19.00;89.10;;;;;;5134406;27;20023;-37
2021/06/05 05:59:15;;;;;;;59.60;39.70;;;19.10;88.30;;;;;;5134047;27;20406;-36
2021/06/05 06:01:42;;;;;;;67.10;41.60;;;19.10;88.80;;;;;;5134463;27;20035;-38
2021/06/05 06:04:07;;;;;;;76.30;45.22;;;19.00;88.60;;;;;;5134222;27;20083;-36
2021/06/05 06:06:33;;;;;;;79.00;46.00;;;18.80;88.80;;;;;;5135559;27;20035;-36
2021/06/05 06:08:59;;;;;;;73.53;42.38;;;18.80;89.20;;;;;;5138326;27;20032;-36
2021/06/05 06:11:26;;;;;;;82.43;46.95;;;18.80;89.30;;;;;;5138298;27;20031;-37
2021/06/05 06:13:52;;;;;;;78.30;46.65;;;19.20;87.70;;;;;;5138246;27;20050;-36
2021/06/05 06:16:18;;;;;;;71.97;42.47;;;19.50;86.60;;;;;;5137737;27;20030;-36
2021/06/05 06:18:45;;;;;;;94.75;50.95;;;19.40;87.40;;;;;;5136889;27;20035;-36
2021/06/05 06:21:14;;;;;;;78.28;43.70;;;19.50;88.20;;;;;;5137813;27;20031;-36
2021/06/05 06:23:40;;;;;;;75.55;45.38;;;19.70;86.40;;;;;;5137406;27;20134;-37
2021/06/05 06:26:10;;;;;;;69.47;42.10;;;19.60;86.70;;;;;;5137943;27;20093;-36
2021/06/05 06:28:38;;;;;;;84.70;45.35;;;19.50;86.50;;;;;;5137699;27;20015;-37
2021/06/05 06:31:05;;;;;;;84.13;48.50;;;19.30;87.00;;;;;;5138444;27;20332;-36
2021/06/05 06:33:30;;;;;;;84.32;50.33;;;19.30;87.50;;;;;;5136265;27;20168;-37
2021/06/05 06:35:57;;;;;;;83.28;49.75;;;18.90;88.40;;;;;;5137546;27;20106;-37
2021/06/05 06:38:31;;;;;;;87.90;50.22;;;19.20;88.20;;;;;;5137474;27;20101;-36
2021/06/05 06:40:58;;;;;;;86.80;49.85;;;19.10;88.00;;;;;;5137462;27;20474;-36
2021/06/05 06:43:27;;;;;;;81.57;47.38;;;19.40;87.50;;;;;;5137251;27;20019;-36
2021/06/05 06:45:53;;;;;;;97.72;53.22;;;19.70;86.00;;;;;;5137387;27;20442;-36
2021/06/05 06:48:21;;;;;;;92.03;52.90;;;19.90;85.10;;;;;;5135406;27;20486;-36
2021/06/05 06:50:48;;;;;;;85.90;49.45;;;19.90;85.00;;;;;;5134756;27;20019;-36
2021/06/05 06:53:14;;;;;;;85.68;52.10;;;19.90;84.60;;;;;;5135294;27;20027;-35
2021/06/05 06:55:40;;;;;;;80.55;49.17;;;19.90;85.60;;;;;;5135126;27;20034;-36
2021/06/05 06:58:06;;;;;;;87.70;52.80;;;20.10;84.90;;;;;;5136123;27;20027;-36
2021/06/05 07:00:35;;;;;;;85.68;50.80;;;20.30;83.90;;;;;;5136307;27;20019;-36
2021/06/05 07:03:01;;;;;;;79.50;46.25;;;19.90;85.10;;;;;;5137276;27;20039;-37
2021/06/05 07:05:27;;;;;;;89.05;50.67;;;19.80;84.80;;;;;;5136420;27;20063;-37
2021/06/05 07:08:07;;;;;;;82.80;46.20;;;19.70;85.50;;;;;;5136760;27;20031;-37
2021/06/05 07:10:32;;;;;;;93.43;48.45;;;19.50;87.00;;;;;;5137126;27;20023;-37
2021/06/05 07:12:58;;;;;;;78.18;48.55;;;19.60;86.40;;;;;;5136782;27;20022;-37
2021/06/05 07:15:23;;;;;;;82.18;48.28;;;19.40;86.90;;;;;;5137045;27;20537;-37
2021/06/05 07:17:49;;;;;;;76.53;41.40;;;19.30;87.20;;;;;;5136217;27;20088;-37
2021/06/05 07:20:16;;;;;;;83.90;44.70;;;19.40;86.10;;;;;;5136594;27;20355;-37
2021/06/05 07:22:48;;;;;;;84.95;47.00;;;19.30;86.90;;;;;;5136440;27;20051;-37
2021/06/05 07:25:14;;;;;;;94.20;48.53;;;19.80;85.50;;;;;;5136396;27;20048;-37
2021/06/05 07:27:40;;;;;;;84.43;47.22;;;19.50;85.70;;;;;;5136223;27;20023;-37
2021/06/05 07:30:06;;;;;;;87.13;46.35;;;19.50;86.20;;;;;;5136998;27;20019;-36
2021/06/05 07:32:32;;;;;;;86.38;46.83;;;19.60;85.90;;;;;;5136801;27;20463;-36
2021/06/05 07:34:57;;;;;;;87.05;47.17;;;19.70;86.00;;;;;;5136070;27;20083;-36
2021/06/05 07:37:24;;;;;;;86.18;48.10;;;19.80;84.80;;;;;;5136195;27;20027;-37
2021/06/05 07:39:50;;;;;;;93.45;51.55;;;19.80;84.80;;;;;;5134780;27;20030;-36
2021/06/05 07:42:16;;;;;;;88.22;49.95;;;20.00;84.50;;;;;;5136593;27;20027;-37
2021/06/05 07:44:42;;;;;;;99.70;52.10;;;20.10;84.80;;;;;;5134723;27;20386;-37
2021/06/05 07:47:08;;;;;;;96.43;50.75;;;20.50;83.60;;;;;;5136034;27;20034;-38
2021/06/05 07:49:37;;;;;;;91.28;50.50;;;20.70;82.50;;;;;;5135710;27;20023;-37
2021/06/05 07:52:07;;;;;;;96.43;52.15;;;20.80;82.10;;;;;;5136080;27;20412;-37
2021/06/05 07:54:33;;;;;;;94.15;51.80;;;21.00;81.00;;;;;;5135007;27;20377;-37
2021/06/05 07:56:59;;;;;;;85.90;49.03;;;20.70;81.50;;;;;;5135896;27;20027;-37
2021/06/05 07:59:26;;;;;;;85.10;48.83;;;20.30;83.50;;;;;;5135622;27;20059;-37
2021/06/05 08:01:52;;;;;;;85.28;46.88;;;20.40;83.50;;;;;;5135608;27;20101;-38
2021/06/05 08:04:18;;;;;;;91.53;52.55;;;20.50;83.50;;;;;;5135761;27;20027;-38
2021/06/05 08:06:45;;;;;;;74.50;45.35;;;20.80;82.50;;;;;;5135290;27;20240;-36
2021/06/05 08:09:11;;;;;;;65.07;43.63;;;20.80;80.30;;;;;;5134876;27;20080;-36
2021/06/05 08:11:37;;;;;;;75.72;47.50;;;20.40;82.40;;;;;;5135206;27;20023;-38
2021/06/05 08:14:03;;;;;;;82.53;48.75;;;20.30;84.00;;;;;;5135250;27;20027;-38
2021/06/05 08:16:29;;;;;;;80.63;49.55;;;20.30;83.70;;;;;;5135244;27;20080;-35
2021/06/05 08:18:55;;;;;;;78.78;49.10;;;19.90;84.60;;;;;;5135491;27;20023;-36
2021/06/05 08:21:21;;;;;;;82.60;52.15;;;19.70;85.60;;;;;;5134970;27;20098;-36
2021/06/05 08:23:48;;;;;;;87.53;54.22;;;19.70;86.10;;;;;;5135232;27;20047;-37
2021/06/05 08:26:16;;;;;;;90.70;55.25;;;19.80;85.50;;;;;;5135343;27;20370;-39
2021/06/05 08:28:42;;;;;;;81.18;51.65;;;19.80;85.50;;;;;;5134310;27;20026;-37
2021/06/05 08:31:10;;;;;;;82.07;52.47;;;19.70;86.10;;;;;;5134967;27;20023;-37
2021/06/05 08:33:37;;;;;;;85.95;52.67;;;19.90;85.90;;;;;;5135237;27;20027;-37
2021/06/05 08:36:04;;;;;;;90.93;53.70;;;20.10;84.70;;;;;;5135225;27;20019;-38
2021/06/05 08:38:30;;;;;;;103.35;59.95;;;20.00;84.90;;;;;;5134665;27;20035;-37
2021/06/05 08:41:05;;;;;;;91.47;55.75;;;19.90;85.30;;;;;;5134743;27;20470;-37
2021/06/05 08:43:42;;;;;;;85.78;51.78;;;19.70;85.60;;;;;;5134531;27;20023;-37
2021/06/05 08:46:11;;;;;;;79.53;49.65;;;20.00;84.30;;;;;;5135098;27;20031;-37
2021/06/05 08:48:37;;;;;;;77.60;47.75;;;20.30;83.70;;;;;;5134487;27;20118;-36
2021/06/05 08:51:16;;;;;;;82.43;49.70;;;20.10;83.90;;;;;;5135260;27;20051;-38
2021/06/05 08:53:42;;;;;;;75.68;48.15;;;20.20;83.70;;;;;;5134631;27;20015;-37
2021/06/05 08:56:14;;;;;;;85.90;49.72;;;20.30;82.90;;;;;;5134448;27;20019;-37
2021/06/05 08:58:46;;;;;;;75.35;43.85;;;20.50;82.70;;;;;;5135036;27;20071;-37
2021/06/05 09:01:39;;;;;;;60.22;38.35;;;20.90;80.80;;;;;;5133427;27;20435;-38
2021/06/05 09:04:14;;;;;;;69.63;42.53;;;21.00;80.10;;;;;;5134615;27;20035;-37
2021/06/05 09:06:50;;;;;;;65.90;42.63;;;21.00;80.40;;;;;;5132931;27;20123;-37
2021/06/05 09:09:20;;;;;;;62.83;41.92;;;20.80;81.20;;;;;;5134591;27;20063;-36
2021/06/05 09:11:46;;;;;;;62.95;39.30;;;21.10;80.30;;;;;;5134453;27;20315;-38
2021/06/05 09:14:12;;;;;;;67.70;42.47;;;21.30;78.70;;;;;;5132831;27;20068;-38
2021/06/05 09:16:47;;;;;;;64.90;42.70;;;21.10;80.20;;;;;;5134403;27;20110;-37
2021/06/05 09:19:33;;;;;;;60.53;39.78;;;21.30;79.30;;;;;;5134110;27;20030;-35
2021/06/05 09:22:08;;;;;;;52.67;36.90;;;21.00;80.50;;;;;;5134014;27;20497;-37
2021/06/05 09:24:49;;;;;;;53.55;35.90;;;21.70;77.30;;;;;;5133911;27;20043;-38
2021/06/05 09:27:18;;;;;;;54.80;36.85;;;22.10;75.80;;;;;;5134657;27;20106;-38
2021/06/05 09:30:21;;;;;;;54.00;36.22;;;22.20;74.50;;;;;;5134073;27;20012;-37
2021/06/05 09:32:46;;;;;;;48.60;34.47;;;22.10;75.20;;;;;;5134055;27;20019;-37
2021/06/05 09:35:14;;;;;;;51.53;35.90;;;22.30;73.80;;;;;;5134738;27;20375;-38
2021/06/05 09:37:42;;;;;;;54.28;34.08;;;21.90;75.50;;;;;;5133690;27;20046;-36
2021/06/05 09:40:27;;;;;;;60.85;36.47;;;21.70;75.90;;;;;;5134270;27;20036;-38
2021/06/05 09:43:14;;;;;;;61.85;39.58;;;22.00;74.90;;;;;;5138511;27;20028;-38
2021/06/05 09:46:02;;;;;;;66.53;39.17;;;21.80;75.40;;;;;;5137999;27;20058;-37
2021/06/05 09:48:39;;;;;;;79.40;48.40;;;21.30;77.10;;;;;;5138284;27;20415;-38
2021/06/05 09:51:33;;;;;;;81.78;48.28;;;21.30;77.50;;;;;;5138737;27;20019;-37
2021/06/05 09:54:07;;;;;;;74.55;46.30;;;21.30;78.20;;;;;;5137753;27;20027;-44
2021/06/05 09:56:36;;;;;;;80.43;48.47;;;20.90;80.30;;;;;;5137927;27;20034;-37
2021/06/05 09:59:33;;;;;;;81.88;50.42;;;20.90;80.40;;;;;;5138151;27;20355;-37
2021/06/05 10:02:02;;;;;;;83.40;49.17;;;20.90;79.90;;;;;;5135394;27;20486;-37
2021/06/05 10:04:30;;;;;;;84.30;49.70;;;20.80;80.40;;;;;;5137851;27;20023;-37
2021/06/05 10:06:58;;;;;;;79.15;48.25;;;21.10;79.70;;;;;;5137830;27;20023;-38
2021/06/05 10:09:27;;;;;;;70.00;43.92;;;21.20;79.50;;;;;;5137831;27;20023;-37
2021/06/05 10:12:08;;;;;;;66.65;43.42;;;21.20;78.60;;;;;;5138059;27;20023;-37
2021/06/05 10:14:52;;;;;;;70.65;43.30;;;21.30;78.90;;;;;;5137311;27;20019;-36
2021/06/05 10:17:44;;;;;;;69.97;43.35;;;21.20;78.70;;;;;;5137369;27;20019;-36
2021/06/05 10:20:40;;;;;;;77.93;49.10;;;21.00;79.40;;;;;;5136347;27;20034;-37
2021/06/05 10:23:08;;;;;;;82.22;47.63;;;20.80;80.90;;;;;;5137563;27;20023;-38
2021/06/05 10:25:49;;;;;;;71.22;45.72;;;21.00;79.80;;;;;;5135482;27;20043;-37
2021/06/05 10:28:21;;;;;;;70.80;45.55;;;21.00;80.00;;;;;;5137690;27;20035;-37
2021/06/05 10:31:02;;;;;;;67.65;43.30;;;21.00;80.00;;;;;;5137556;27;20023;-37
2021/06/05 10:33:44;;;;;;;68.97;42.72;;;21.10;79.80;;;;;;5137299;27;20083;-38
2021/06/05 10:36:29;;;;;;;56.40;36.80;;;20.80;80.50;;;;;;5136251;27;20015;-37
2021/06/05 10:39:09;;;;;;;51.97;32.30;;;21.30;79.10;;;;;;5136138;27;20099;-37
2021/06/05 10:41:54;;;;;;;46.50;29.45;;;21.20;79.90;;;;;;5137469;27;20098;-37
2021/06/05 10:44:20;;;;;;;47.88;32.60;;;21.40;78.00;;;;;;5135973;27;20140;-37
2021/06/05 10:46:58;;;;;;;42.90;29.33;;;21.60;78.60;;;;;;5119005;27;20019;-38
2021/06/05 10:49:23;;;;;;;45.70;31.17;;;21.50;78.20;;;;;;5137852;27;20026;-38
2021/06/05 10:52:16;;;;;;;47.33;32.30;;;21.30;78.40;;;;;;5136818;27;20466;-36
2021/06/05 10:54:50;;;;;;;47.28;33.60;;;21.40;78.00;;;;;;5137597;27;20062;-36
2021/06/05 10:57:18;;;;;;;49.72;33.85;;;22.10;75.80;;;;;;5135921;27;20028;-37
2021/06/05 10:59:57;;;;;;;49.28;33.33;;;21.80;76.30;;;;;;5137437;27;20023;-37
2021/06/05 11:02:38;;;;;;;56.63;32.05;;;21.40;77.90;;;;;;5137284;27;20031;-38
2021/06/05 11:05:29;;;;;;;47.28;32.63;;;21.10;79.40;;;;;;5137243;27;20019;-36
2021/06/05 11:08:16;;;;;;;48.70;33.65;;;21.30;78.90;;;;;;5097651;27;20039;-37
2021/06/05 11:10:51;;;;;;;51.97;33.33;;;21.50;77.40;;;;;;5136871;27;20023;-36
2021/06/05 11:13:32;;;;;;;48.78;32.00;;;21.30;78.70;;;;;;5135423;27;20460;-36
2021/06/05 11:16:07;;;;;;;56.38;35.22;;;21.30;78.80;;;;;;5135031;27;20028;-37
2021/06/05 11:18:42;;;;;;;58.47;36.38;;;21.10;80.00;;;;;;5135022;27;20057;-37
2021/06/05 11:21:22;;;;;;;76.65;47.20;;;21.40;79.20;;;;;;5136345;27;20015;-36
2021/06/05 11:24:13;;;;;;;86.00;51.05;;;21.80;77.20;;;;;;5135946;27;20527;-36
2021/06/05 11:26:49;;;;;;;71.15;45.83;;;21.80;76.00;;;;;;5120446;27;20114;-37
2021/06/05 11:29:21;;;;;;;89.93;52.88;;;21.50;76.70;;;;;;5134713;27;20118;-38
2021/06/05 11:32:16;;;;;;;86.03;51.10;;;21.50;77.70;;;;;;5135800;27;20023;-37
2021/06/05 11:34:45;;;;;;;75.22;48.63;;;22.10;76.20;;;;;;5136410;27;20080;-36
2021/06/05 11:37:14;;;;;;;72.15;43.28;;;22.30;74.60;;;;;;5134564;27;20394;-36
2021/06/05 11:39:51;;;;;;;69.88;43.08;;;22.00;75.10;;;;;;5135942;27;20031;-38
2021/06/05 11:42:20;;;;;;;65.90;44.40;;;21.70;76.60;;;;;;5134914;27;20023;-38
2021/06/05 11:44:55;;;;;;;65.38;43.58;;;21.80;76.70;;;;;;5135444;27;20080;-37
2021/06/05 11:47:21;;;;;;;62.97;42.67;;;22.40;74.10;;;;;;5134504;27;20026;-37
2021/06/05 11:50:14;;;;;;;71.07;43.70;;;22.40;74.10;;;;;;5135729;27;20011;-36
2021/06/05 11:52:53;;;;;;;72.00;44.28;;;22.40;74.10;;;;;;5135514;27;20068;-36
2021/06/05 11:55:36;;;;;;;58.88;40.55;;;22.30;74.60;;;;;;5135921;27;20458;-37
2021/06/05 11:58:06;;;;;;;63.33;42.70;;;22.30;74.40;;;;;;5135964;27;20474;-37
2021/06/05 12:00:43;;;;;;;62.72;41.63;;;21.90;75.80;;;;;;5135773;27;20023;-37
2021/06/05 12:03:22;;;;;;;62.08;41.72;;;21.70;76.50;;;;;;5135243;27;20023;-36
2021/06/05 12:05:48;;;;;;;63.03;42.70;;;21.80;76.00;;;;;;5134753;27;20041;-39
2021/06/05 12:08:28;;;;;;;58.42;39.47;;;22.10;75.60;;;;;;5135453;27;20015;-37
2021/06/05 12:10:56;;;;;;;57.70;39.00;;;22.00;75.10;;;;;;5135243;27;20030;-38
2021/06/05 12:13:27;;;;;;;55.85;40.70;;;22.30;74.90;;;;;;5135361;27;20027;-36
2021/06/05 12:15:56;;;;;;;56.05;39.75;;;22.30;74.40;;;;;;5135112;27;20057;-37
2021/06/05 12:18:26;;;;;;;51.75;39.03;;;22.30;74.30;;;;;;5135076;27;20019;-37
2021/06/05 12:20:58;;;;;;;60.33;40.47;;;22.40;73.70;;;;;;5135792;27;20027;-37
2021/06/05 12:23:30;;;;;;;53.22;39.08;;;22.30;74.20;;;;;;5134487;27;20031;-36
2021/06/05 12:26:04;;;;;;;59.40;39.05;;;22.20;74.70;;;;;;5133402;27;20441;-36
2021/06/05 12:28:33;;;;;;;49.63;36.58;;;22.20;74.70;;;;;;5134765;27;20019;-37
2021/06/05 12:31:25;;;;;;;47.95;35.20;;;22.00;74.40;;;;;;5134854;27;20058;-37
2021/06/05 12:33:59;;;;;;;43.72;34.28;;;22.30;73.30;;;;;;5134891;27;20023;-41
2021/06/05 12:36:32;;;;;;;55.92;34.72;;;22.50;72.90;;;;;;5134638;27;20416;-38
2021/06/05 12:39:37;;;;;;;49.63;35.95;;;22.70;72.90;;;;;;5135061;27;20021;-37
2021/06/05 12:42:06;;;;;;;47.05;34.03;;;22.40;72.70;;;;;;5134722;27;20015;-39